sensor_id;sensor_type;location;lat;lon;timestamp;P1;durP1;ratioP1;P2;durP2;ratioP2
68365;SDS011;55283;51.466;5.478;2022-07-31T00:00:49;2.50;;;2.27;;
68365;SDS011;55283;51.466;5.478;2022-07-31T00:03:16;3.43;;;2.20;;
68365;SDS011;55283;51.466;5.478;2022-07-31T00:05:42;4.20;;;2.60;;
68365;SDS011;55283;51.466;5.478;2022-07-31T00:08:07;5.07;;;2.40;;
68365;SDS011;55283;51.466;5.478;2022-07-31T00:10:33;3.87;;;2.17;;
68365;SDS011;55283;51.466;5.478;2022-07-31T00:12:58;3.43;;;2.40;;
68365;SDS011;55283;51.466;5.478;2022-07-31T00:15:23;3.43;;;2.43;;
68365;SDS011;55283;51.466;5.478;2022-07-31T00:17:49;5.53;;;2.50;;
68365;SDS011;55283;51.466;5.478;2022-07-31T00:20:15;3.37;;;2.27;;
68365;SDS011;55283;51.466;5.478;2022-07-31T00:22:42;3.45;;;2.50;;
68365;SDS011;55283;51.466;5.478;2022-07-31T00:25:09;2.73;;;2.43;;
68365;SDS011;55283;51.466;5.478;2022-07-31T00:27:36;5.32;;;2.60;;
68365;SDS011;55283;51.466;5.478;2022-07-31T00:30:01;4.30;;;2.50;;
68365;SDS011;55283;51.466;5.478;2022-07-31T00:32:28;4.33;;;2.87;;
68365;SDS011;55283;51.466;5.478;2022-07-31T00:34:53;4.43;;;2.60;;
68365;SDS011;55283;51.466;5.478;2022-07-31T00:37:19;3.72;;;2.88;;
68365;SDS011;55283;51.466;5.478;2022-07-31T00:39:44;3.60;;;2.60;;
68365;SDS011;55283;51.466;5.478;2022-07-31T00:42:19;3.77;;;2.80;;
68365;SDS011;55283;51.466;5.478;2022-07-31T00:44:49;3.58;;;2.70;;
68365;SDS011;55283;51.466;5.478;2022-07-31T00:47:16;3.77;;;2.50;;
68365;SDS011;55283;51.466;5.478;2022-07-31T00:49:42;5.13;;;2.63;;
68365;SDS011;55283;51.466;5.478;2022-07-31T00:52:09;3.80;;;2.35;;
68365;SDS011;55283;51.466;5.478;2022-07-31T00:54:35;2.90;;;2.40;;
68365;SDS011;55283;51.466;5.478;2022-07-31T00:57:00;3.70;;;2.28;;
68365;SDS011;55283;51.466;5.478;2022-07-31T00:59:27;3.50;;;2.40;;
68365;SDS011;55283;51.466;5.478;2022-07-31T01:01:53;3.60;;;2.50;;
68365;SDS011;55283;51.466;5.478;2022-07-31T01:04:22;3.35;;;2.30;;
68365;SDS011;55283;51.466;5.478;2022-07-31T01:06:50;3.20;;;2.43;;
68365;SDS011;55283;51.466;5.478;2022-07-31T01:09:18;4.68;;;2.33;;
68365;SDS011;55283;51.466;5.478;2022-07-31T01:14:16;3.22;;;2.80;;
68365;SDS011;55283;51.466;5.478;2022-07-31T01:16:48;4.00;;;2.60;;
68365;SDS011;55283;51.466;5.478;2022-07-31T01:19:21;3.28;;;2.60;;
68365;SDS011;55283;51.466;5.478;2022-07-31T01:21:53;3.53;;;2.63;;
68365;SDS011;55283;51.466;5.478;2022-07-31T01:27:11;3.30;;;2.40;;
68365;SDS011;55283;51.466;5.478;2022-07-31T01:29:52;4.47;;;2.50;;
68365;SDS011;55283;51.466;5.478;2022-07-31T01:32:36;2.80;;;2.40;;
68365;SDS011;55283;51.466;5.478;2022-07-31T01:35:16;2.58;;;2.38;;
68365;SDS011;55283;51.466;5.478;2022-07-31T01:37:49;3.60;;;2.58;;
68365;SDS011;55283;51.466;5.478;2022-07-31T01:41:00;2.75;;;2.20;;
68365;SDS011;55283;51.466;5.478;2022-07-31T01:43:15;2.57;;;2.37;;
68365;SDS011;55283;51.466;5.478;2022-07-31T01:45:44;2.58;;;2.30;;
68365;SDS011;55283;51.466;5.478;2022-07-31T01:48:14;3.03;;;2.40;;
68365;SDS011;55283;51.466;5.478;2022-07-31T01:50:41;4.00;;;2.40;;
68365;SDS011;55283;51.466;5.478;2022-07-31T01:53:14;2.90;;;2.38;;
68365;SDS011;55283;51.466;5.478;2022-07-31T01:55:42;3.88;;;2.63;;
68365;SDS011;55283;51.466;5.478;2022-07-31T01:58:10;3.53;;;2.63;;
68365;SDS011;55283;51.466;5.478;2022-07-31T02:00:36;2.72;;;2.20;;
68365;SDS011;55283;51.466;5.478;2022-07-31T02:03:03;2.88;;;2.53;;
68365;SDS011;55283;51.466;5.478;2022-07-31T02:05:30;3.15;;;2.20;;
68365;SDS011;55283;51.466;5.478;2022-07-31T02:08:00;3.03;;;2.37;;
68365;SDS011;55283;51.466;5.478;2022-07-31T02:10:27;3.63;;;2.60;;
68365;SDS011;55283;51.466;5.478;2022-07-31T02:12:53;2.67;;;2.40;;
68365;SDS011;55283;51.466;5.478;2022-07-31T02:15:20;3.97;;;2.40;;
68365;SDS011;55283;51.466;5.478;2022-07-31T02:17:47;3.25;;;2.60;;
68365;SDS011;55283;51.466;5.478;2022-07-31T02:20:18;2.72;;;2.38;;
68365;SDS011;55283;51.466;5.478;2022-07-31T02:22:45;3.60;;;2.80;;
68365;SDS011;55283;51.466;5.478;2022-07-31T02:25:10;3.53;;;2.70;;
68365;SDS011;55283;51.466;5.478;2022-07-31T02:27:37;3.37;;;2.40;;
68365;SDS011;55283;51.466;5.478;2022-07-31T02:30:04;3.47;;;2.72;;
68365;SDS011;55283;51.466;5.478;2022-07-31T02:32:30;3.33;;;2.63;;
68365;SDS011;55283;51.466;5.478;2022-07-31T02:35:00;3.83;;;2.55;;
68365;SDS011;55283;51.466;5.478;2022-07-31T02:37:27;3.88;;;2.42;;
68365;SDS011;55283;51.466;5.478;2022-07-31T02:39:55;3.10;;;2.58;;
68365;SDS011;55283;51.466;5.478;2022-07-31T02:42:22;3.77;;;2.70;;
68365;SDS011;55283;51.466;5.478;2022-07-31T02:44:48;4.07;;;2.67;;
68365;SDS011;55283;51.466;5.478;2022-07-31T02:47:14;3.28;;;2.67;;
68365;SDS011;55283;51.466;5.478;2022-07-31T02:49:41;4.07;;;2.50;;
68365;SDS011;55283;51.466;5.478;2022-07-31T02:52:09;3.35;;;2.70;;
68365;SDS011;55283;51.466;5.478;2022-07-31T02:54:37;4.30;;;2.70;;
68365;SDS011;55283;51.466;5.478;2022-07-31T02:57:05;3.33;;;2.47;;
68365;SDS011;55283;51.466;5.478;2022-07-31T02:59:31;5.22;;;2.63;;
68365;SDS011;55283;51.466;5.478;2022-07-31T03:02:04;3.97;;;2.50;;
68365;SDS011;55283;51.466;5.478;2022-07-31T03:04:32;3.20;;;2.60;;
68365;SDS011;55283;51.466;5.478;2022-07-31T03:06:58;3.58;;;2.80;;
68365;SDS011;55283;51.466;5.478;2022-07-31T03:09:24;3.08;;;2.60;;
68365;SDS011;55283;51.466;5.478;2022-07-31T03:11:50;4.67;;;2.50;;
68365;SDS011;55283;51.466;5.478;2022-07-31T03:14:16;4.63;;;2.72;;
68365;SDS011;55283;51.466;5.478;2022-07-31T03:16:42;3.40;;;2.60;;
68365;SDS011;55283;51.466;5.478;2022-07-31T03:19:10;3.75;;;2.63;;
68365;SDS011;55283;51.466;5.478;2022-07-31T03:21:36;4.90;;;2.80;;
68365;SDS011;55283;51.466;5.478;2022-07-31T03:24:02;3.20;;;2.90;;
68365;SDS011;55283;51.466;5.478;2022-07-31T03:26:28;3.75;;;2.58;;
68365;SDS011;55283;51.466;5.478;2022-07-31T03:28:54;6.95;;;2.70;;
68365;SDS011;55283;51.466;5.478;2022-07-31T03:31:23;3.63;;;2.87;;
68365;SDS011;55283;51.466;5.478;2022-07-31T03:33:49;3.95;;;2.72;;
68365;SDS011;55283;51.466;5.478;2022-07-31T03:36:14;5.13;;;2.70;;
68365;SDS011;55283;51.466;5.478;2022-07-31T03:38:40;4.35;;;3.10;;
68365;SDS011;55283;51.466;5.478;2022-07-31T03:41:05;4.30;;;2.90;;
68365;SDS011;55283;51.466;5.478;2022-07-31T03:43:31;4.37;;;3.00;;
68365;SDS011;55283;51.466;5.478;2022-07-31T03:45:58;5.60;;;2.67;;
68365;SDS011;55283;51.466;5.478;2022-07-31T03:48:26;3.40;;;2.90;;
68365;SDS011;55283;51.466;5.478;2022-07-31T03:50:53;5.53;;;3.03;;
68365;SDS011;55283;51.466;5.478;2022-07-31T03:53:19;4.43;;;2.88;;
68365;SDS011;55283;51.466;5.478;2022-07-31T03:55:45;3.38;;;2.65;;
68365;SDS011;55283;51.466;5.478;2022-07-31T03:58:12;4.73;;;3.17;;
68365;SDS011;55283;51.466;5.478;2022-07-31T04:00:42;4.32;;;2.70;;
68365;SDS011;55283;51.466;5.478;2022-07-31T04:03:09;4.13;;;3.00;;
68365;SDS011;55283;51.466;5.478;2022-07-31T04:05:36;4.20;;;2.70;;
68365;SDS011;55283;51.466;5.478;2022-07-31T04:08:02;4.15;;;2.85;;
68365;SDS011;55283;51.466;5.478;2022-07-31T04:10:28;4.85;;;3.08;;
68365;SDS011;55283;51.466;5.478;2022-07-31T04:12:54;4.57;;;2.73;;
68365;SDS011;55283;51.466;5.478;2022-07-31T04:15:22;4.07;;;3.00;;
68365;SDS011;55283;51.466;5.478;2022-07-31T04:17:48;3.90;;;2.60;;
68365;SDS011;55283;51.466;5.478;2022-07-31T04:20:16;6.45;;;3.08;;
68365;SDS011;55283;51.466;5.478;2022-07-31T04:22:42;4.88;;;2.60;;
68365;SDS011;55283;51.466;5.478;2022-07-31T04:25:08;4.40;;;2.70;;
68365;SDS011;55283;51.466;5.478;2022-07-31T04:27:34;4.27;;;2.50;;
68365;SDS011;55283;51.466;5.478;2022-07-31T04:30:00;4.43;;;2.72;;
68365;SDS011;55283;51.466;5.478;2022-07-31T04:32:26;3.58;;;2.45;;
68365;SDS011;55283;51.466;5.478;2022-07-31T04:34:52;4.57;;;2.70;;
68365;SDS011;55283;51.466;5.478;2022-07-31T04:37:17;3.85;;;2.58;;
68365;SDS011;55283;51.466;5.478;2022-07-31T04:39:43;2.70;;;2.50;;
68365;SDS011;55283;51.466;5.478;2022-07-31T04:42:08;3.37;;;2.50;;
68365;SDS011;55283;51.466;5.478;2022-07-31T04:44:34;4.20;;;2.50;;
68365;SDS011;55283;51.466;5.478;2022-07-31T04:47:04;2.87;;;2.47;;
68365;SDS011;55283;51.466;5.478;2022-07-31T04:49:31;3.67;;;2.30;;
68365;SDS011;55283;51.466;5.478;2022-07-31T04:51:57;3.60;;;2.57;;
68365;SDS011;55283;51.466;5.478;2022-07-31T04:54:23;3.63;;;2.40;;
68365;SDS011;55283;51.466;5.478;2022-07-31T04:56:49;3.40;;;2.30;;
68365;SDS011;55283;51.466;5.478;2022-07-31T04:59:16;3.10;;;2.37;;
68365;SDS011;55283;51.466;5.478;2022-07-31T05:01:47;5.40;;;2.50;;
68365;SDS011;55283;51.466;5.478;2022-07-31T05:04:13;3.85;;;2.25;;
68365;SDS011;55283;51.466;5.478;2022-07-31T05:06:41;3.57;;;2.30;;
68365;SDS011;55283;51.466;5.478;2022-07-31T05:09:14;3.47;;;2.30;;
68365;SDS011;55283;51.466;5.478;2022-07-31T05:11:41;5.63;;;2.22;;
68365;SDS011;55283;51.466;5.478;2022-07-31T05:14:07;2.93;;;2.20;;
68365;SDS011;55283;51.466;5.478;2022-07-31T05:16:34;3.65;;;2.00;;
68365;SDS011;55283;51.466;5.478;2022-07-31T05:19:00;3.47;;;2.30;;
68365;SDS011;55283;51.466;5.478;2022-07-31T05:21:26;4.63;;;2.30;;
68365;SDS011;55283;51.466;5.478;2022-07-31T05:23:54;3.53;;;2.10;;
68365;SDS011;55283;51.466;5.478;2022-07-31T05:26:20;3.60;;;2.20;;
68365;SDS011;55283;51.466;5.478;2022-07-31T05:28:46;2.95;;;2.00;;
68365;SDS011;55283;51.466;5.478;2022-07-31T05:31:13;2.13;;;1.93;;
68365;SDS011;55283;51.466;5.478;2022-07-31T05:33:39;4.28;;;2.28;;
68365;SDS011;55283;51.466;5.478;2022-07-31T05:36:05;3.13;;;2.23;;
68365;SDS011;55283;51.466;5.478;2022-07-31T05:38:30;3.17;;;1.80;;
68365;SDS011;55283;51.466;5.478;2022-07-31T05:40:56;3.53;;;1.90;;
68365;SDS011;55283;51.466;5.478;2022-07-31T05:43:21;8.37;;;1.90;;
68365;SDS011;55283;51.466;5.478;2022-07-31T05:45:49;4.05;;;2.05;;
68365;SDS011;55283;51.466;5.478;2022-07-31T05:48:15;3.30;;;2.00;;
68365;SDS011;55283;51.466;5.478;2022-07-31T05:50:41;3.33;;;2.30;;
68365;SDS011;55283;51.466;5.478;2022-07-31T05:53:11;2.97;;;2.15;;
68365;SDS011;55283;51.466;5.478;2022-07-31T05:55:39;3.93;;;1.80;;
68365;SDS011;55283;51.466;5.478;2022-07-31T05:58:05;3.33;;;1.77;;
68365;SDS011;55283;51.466;5.478;2022-07-31T06:00:31;2.87;;;1.87;;
68365;SDS011;55283;51.466;5.478;2022-07-31T06:02:56;3.33;;;1.70;;
68365;SDS011;55283;51.466;5.478;2022-07-31T06:05:23;2.57;;;1.73;;
68365;SDS011;55283;51.466;5.478;2022-07-31T06:07:49;1.90;;;1.63;;
68365;SDS011;55283;51.466;5.478;2022-07-31T06:10:15;4.60;;;1.60;;
68365;SDS011;55283;51.466;5.478;2022-07-31T06:12:40;2.20;;;1.57;;
68365;SDS011;55283;51.466;5.478;2022-07-31T06:15:06;2.63;;;1.50;;
68365;SDS011;55283;51.466;5.478;2022-07-31T06:17:36;2.45;;;1.60;;
68365;SDS011;55283;51.466;5.478;2022-07-31T06:20:02;1.73;;;1.50;;
68365;SDS011;55283;51.466;5.478;2022-07-31T06:22:31;3.97;;;1.53;;
68365;SDS011;55283;51.466;5.478;2022-07-31T06:24:56;2.87;;;1.50;;
68365;SDS011;55283;51.466;5.478;2022-07-31T06:27:22;4.90;;;1.60;;
68365;SDS011;55283;51.466;5.478;2022-07-31T06:29:47;6.30;;;1.60;;
68365;SDS011;55283;51.466;5.478;2022-07-31T06:32:13;2.10;;;1.40;;
68365;SDS011;55283;51.466;5.478;2022-07-31T06:34:39;2.40;;;1.30;;
68365;SDS011;55283;51.466;5.478;2022-07-31T06:37:05;4.63;;;1.38;;
68365;SDS011;55283;51.466;5.478;2022-07-31T06:39:30;2.10;;;1.40;;
68365;SDS011;55283;51.466;5.478;2022-07-31T06:41:56;2.13;;;1.20;;
68365;SDS011;55283;51.466;5.478;2022-07-31T06:44:21;2.25;;;1.35;;
68365;SDS011;55283;51.466;5.478;2022-07-31T06:46:47;1.87;;;1.30;;
68365;SDS011;55283;51.466;5.478;2022-07-31T06:49:13;2.45;;;1.40;;
68365;SDS011;55283;51.466;5.478;2022-07-31T06:51:40;2.80;;;1.40;;
68365;SDS011;55283;51.466;5.478;2022-07-31T06:54:07;2.63;;;1.40;;
68365;SDS011;55283;51.466;5.478;2022-07-31T06:56:34;4.55;;;2.08;;
68365;SDS011;55283;51.466;5.478;2022-07-31T06:59:01;5.72;;;1.27;;
68365;SDS011;55283;51.466;5.478;2022-07-31T07:01:27;4.43;;;1.60;;
68365;SDS011;55283;51.466;5.478;2022-07-31T07:03:56;4.38;;;2.00;;
68365;SDS011;55283;51.466;5.478;2022-07-31T07:06:21;6.00;;;2.65;;
68365;SDS011;55283;51.466;5.478;2022-07-31T07:08:47;3.70;;;2.57;;
68365;SDS011;55283;51.466;5.478;2022-07-31T07:11:13;6.85;;;2.50;;
68365;SDS011;55283;51.466;5.478;2022-07-31T07:13:39;3.13;;;2.20;;
68365;SDS011;55283;51.466;5.478;2022-07-31T07:16:04;3.50;;;2.35;;
68365;SDS011;55283;51.466;5.478;2022-07-31T07:18:30;6.63;;;2.80;;
68365;SDS011;55283;51.466;5.478;2022-07-31T07:20:55;4.83;;;3.13;;
68365;SDS011;55283;51.466;5.478;2022-07-31T07:23:21;5.30;;;3.50;;
68365;SDS011;55283;51.466;5.478;2022-07-31T07:25:47;5.50;;;3.70;;
68365;SDS011;55283;51.466;5.478;2022-07-31T07:28:13;5.95;;;4.20;;
68365;SDS011;55283;51.466;5.478;2022-07-31T07:30:38;7.25;;;4.10;;
68365;SDS011;55283;51.466;5.478;2022-07-31T07:33:04;8.27;;;4.27;;
68365;SDS011;55283;51.466;5.478;2022-07-31T07:35:30;4.93;;;3.67;;
68365;SDS011;55283;51.466;5.478;2022-07-31T07:37:56;7.22;;;3.97;;
68365;SDS011;55283;51.466;5.478;2022-07-31T07:40:22;5.47;;;4.15;;
68365;SDS011;55283;51.466;5.478;2022-07-31T07:42:47;10.47;;;4.60;;
68365;SDS011;55283;51.466;5.478;2022-07-31T07:45:13;6.70;;;4.30;;
68365;SDS011;55283;51.466;5.478;2022-07-31T07:47:38;6.80;;;4.50;;
68365;SDS011;55283;51.466;5.478;2022-07-31T07:50:05;4.93;;;3.80;;
68365;SDS011;55283;51.466;5.478;2022-07-31T07:52:35;4.60;;;3.85;;
68365;SDS011;55283;51.466;5.478;2022-07-31T07:55:01;6.28;;;4.30;;
68365;SDS011;55283;51.466;5.478;2022-07-31T07:57:27;5.10;;;4.07;;
68365;SDS011;55283;51.466;5.478;2022-07-31T07:59:53;7.57;;;4.57;;
68365;SDS011;55283;51.466;5.478;2022-07-31T08:02:21;8.05;;;4.63;;
68365;SDS011;55283;51.466;5.478;2022-07-31T08:04:46;6.93;;;4.53;;
68365;SDS011;55283;51.466;5.478;2022-07-31T08:07:12;6.00;;;4.50;;
68365;SDS011;55283;51.466;5.478;2022-07-31T08:09:38;6.00;;;4.50;;
68365;SDS011;55283;51.466;5.478;2022-07-31T08:12:03;5.47;;;4.20;;
68365;SDS011;55283;51.466;5.478;2022-07-31T08:14:29;6.60;;;4.60;;
68365;SDS011;55283;51.466;5.478;2022-07-31T08:16:54;7.07;;;4.40;;
68365;SDS011;55283;51.466;5.478;2022-07-31T08:19:20;5.70;;;4.13;;
68365;SDS011;55283;51.466;5.478;2022-07-31T08:21:46;5.95;;;3.92;;
68365;SDS011;55283;51.466;5.478;2022-07-31T08:24:11;5.73;;;3.70;;
68365;SDS011;55283;51.466;5.478;2022-07-31T08:26:37;7.00;;;3.93;;
68365;SDS011;55283;51.466;5.478;2022-07-31T08:29:24;6.10;;;4.35;;
68365;SDS011;55283;51.466;5.478;2022-07-31T08:31:49;6.07;;;4.55;;
68365;SDS011;55283;51.466;5.478;2022-07-31T08:34:15;5.93;;;4.53;;
68365;SDS011;55283;51.466;5.478;2022-07-31T08:36:44;7.28;;;4.93;;
68365;SDS011;55283;51.466;5.478;2022-07-31T08:39:10;7.03;;;4.00;;
68365;SDS011;55283;51.466;5.478;2022-07-31T08:41:38;6.22;;;4.35;;
68365;SDS011;55283;51.466;5.478;2022-07-31T08:44:05;6.10;;;4.20;;
68365;SDS011;55283;51.466;5.478;2022-07-31T08:46:35;5.65;;;4.40;;
68365;SDS011;55283;51.466;5.478;2022-07-31T08:49:02;6.10;;;4.47;;
68365;SDS011;55283;51.466;5.478;2022-07-31T08:51:30;6.90;;;4.22;;
68365;SDS011;55283;51.466;5.478;2022-07-31T08:53:59;5.93;;;3.92;;
68365;SDS011;55283;51.466;5.478;2022-07-31T08:56:33;5.90;;;3.87;;
68365;SDS011;55283;51.466;5.478;2022-07-31T08:59:00;4.93;;;3.70;;
68365;SDS011;55283;51.466;5.478;2022-07-31T09:01:26;4.90;;;3.55;;
68365;SDS011;55283;51.466;5.478;2022-07-31T09:03:52;5.87;;;3.80;;
68365;SDS011;55283;51.466;5.478;2022-07-31T09:06:18;5.53;;;3.95;;
68365;SDS011;55283;51.466;5.478;2022-07-31T09:08:44;6.53;;;3.73;;
68365;SDS011;55283;51.466;5.478;2022-07-31T09:11:10;8.07;;;3.87;;
68365;SDS011;55283;51.466;5.478;2022-07-31T09:16:21;6.53;;;3.97;;
68365;SDS011;55283;51.466;5.478;2022-07-31T09:18:54;4.80;;;3.70;;
68365;SDS011;55283;51.466;5.478;2022-07-31T09:21:21;4.87;;;3.33;;
68365;SDS011;55283;51.466;5.478;2022-07-31T09:23:47;6.78;;;3.67;;
68365;SDS011;55283;51.466;5.478;2022-07-31T09:26:12;4.60;;;3.20;;
68365;SDS011;55283;51.466;5.478;2022-07-31T09:28:43;5.75;;;3.60;;
68365;SDS011;55283;51.466;5.478;2022-07-31T09:31:10;6.53;;;3.63;;
68365;SDS011;55283;51.466;5.478;2022-07-31T09:33:36;4.27;;;3.17;;
68365;SDS011;55283;51.466;5.478;2022-07-31T09:36:03;5.82;;;3.40;;
68365;SDS011;55283;51.466;5.478;2022-07-31T09:38:39;5.25;;;3.20;;
68365;SDS011;55283;51.466;5.478;2022-07-31T09:41:07;5.70;;;3.60;;
68365;SDS011;55283;51.466;5.478;2022-07-31T09:43:39;5.82;;;3.40;;
68365;SDS011;55283;51.466;5.478;2022-07-31T09:46:06;6.95;;;3.70;;
68365;SDS011;55283;51.466;5.478;2022-07-31T09:48:33;3.90;;;3.17;;
68365;SDS011;55283;51.466;5.478;2022-07-31T09:51:03;4.90;;;3.47;;
68365;SDS011;55283;51.466;5.478;2022-07-31T09:53:43;5.07;;;3.10;;
68365;SDS011;55283;51.466;5.478;2022-07-31T09:56:11;5.22;;;3.42;;
68365;SDS011;55283;51.466;5.478;2022-07-31T09:58:39;5.13;;;3.10;;
68365;SDS011;55283;51.466;5.478;2022-07-31T10:01:05;5.97;;;3.40;;
68365;SDS011;55283;51.466;5.478;2022-07-31T10:03:35;6.40;;;3.17;;
68365;SDS011;55283;51.466;5.478;2022-07-31T10:06:02;4.60;;;3.17;;
68365;SDS011;55283;51.466;5.478;2022-07-31T10:08:31;6.40;;;3.30;;
68365;SDS011;55283;51.466;5.478;2022-07-31T10:10:58;5.40;;;3.40;;
68365;SDS011;55283;51.466;5.478;2022-07-31T10:13:26;5.55;;;3.40;;
68365;SDS011;55283;51.466;5.478;2022-07-31T10:16:00;5.43;;;3.30;;
68365;SDS011;55283;51.466;5.478;2022-07-31T10:18:27;5.72;;;3.10;;
68365;SDS011;55283;51.466;5.478;2022-07-31T10:20:55;4.80;;;3.22;;
68365;SDS011;55283;51.466;5.478;2022-07-31T10:23:26;6.27;;;3.30;;
68365;SDS011;55283;51.466;5.478;2022-07-31T10:25:55;5.82;;;3.13;;
68365;SDS011;55283;51.466;5.478;2022-07-31T10:28:25;5.30;;;3.10;;
68365;SDS011;55283;51.466;5.478;2022-07-31T10:30:53;5.80;;;3.30;;
68365;SDS011;55283;51.466;5.478;2022-07-31T10:33:22;4.35;;;2.90;;
68365;SDS011;55283;51.466;5.478;2022-07-31T10:38:44;5.33;;;3.00;;
68365;SDS011;55283;51.466;5.478;2022-07-31T10:41:24;5.97;;;3.00;;
68365;SDS011;55283;51.466;5.478;2022-07-31T10:43:58;4.25;;;2.83;;
68365;SDS011;55283;51.466;5.478;2022-07-31T10:46:29;3.37;;;2.70;;
68365;SDS011;55283;51.466;5.478;2022-07-31T10:48:56;6.05;;;2.75;;
68365;SDS011;55283;51.466;5.478;2022-07-31T10:51:22;5.95;;;2.90;;
68365;SDS011;55283;51.466;5.478;2022-07-31T10:53:52;6.70;;;3.15;;
68365;SDS011;55283;51.466;5.478;2022-07-31T10:56:24;10.27;;;3.50;;
68365;SDS011;55283;51.466;5.478;2022-07-31T10:58:52;7.65;;;3.67;;
68365;SDS011;55283;51.466;5.478;2022-07-31T11:01:20;7.53;;;3.38;;
68365;SDS011;55283;51.466;5.478;2022-07-31T11:03:47;5.60;;;3.17;;
68365;SDS011;55283;51.466;5.478;2022-07-31T11:06:16;5.57;;;2.78;;
68365;SDS011;55283;51.466;5.478;2022-07-31T11:08:43;7.00;;;3.25;;
68365;SDS011;55283;51.466;5.478;2022-07-31T11:11:10;7.70;;;3.37;;
68365;SDS011;55283;51.466;5.478;2022-07-31T11:13:47;5.55;;;3.20;;
68365;SDS011;55283;51.466;5.478;2022-07-31T11:16:14;5.15;;;3.03;;
68365;SDS011;55283;51.466;5.478;2022-07-31T11:18:43;6.93;;;3.17;;
68365;SDS011;55283;51.466;5.478;2022-07-31T11:21:27;5.37;;;3.00;;
68365;SDS011;55283;51.466;5.478;2022-07-31T11:23:55;4.30;;;3.55;;
68365;SDS011;55283;51.466;5.478;2022-07-31T11:26:20;4.63;;;3.30;;
68365;SDS011;55283;51.466;5.478;2022-07-31T11:28:46;4.82;;;3.10;;
68365;SDS011;55283;51.466;5.478;2022-07-31T11:31:12;6.85;;;2.92;;
68365;SDS011;55283;51.466;5.478;2022-07-31T11:33:40;3.47;;;3.10;;
68365;SDS011;55283;51.466;5.478;2022-07-31T11:36:14;4.55;;;3.00;;
68365;SDS011;55283;51.466;5.478;2022-07-31T11:38:45;4.57;;;3.30;;
68365;SDS011;55283;51.466;5.478;2022-07-31T11:41:14;7.00;;;3.30;;
68365;SDS011;55283;51.466;5.478;2022-07-31T11:43:46;5.68;;;3.20;;
68365;SDS011;55283;51.466;5.478;2022-07-31T11:48:52;5.10;;;3.30;;
68365;SDS011;55283;51.466;5.478;2022-07-31T11:51:19;4.13;;;2.92;;
68365;SDS011;55283;51.466;5.478;2022-07-31T11:53:45;7.07;;;2.90;;
68365;SDS011;55283;51.466;5.478;2022-07-31T11:56:11;3.75;;;2.90;;
68365;SDS011;55283;51.466;5.478;2022-07-31T11:58:44;3.80;;;2.70;;
68365;SDS011;55283;51.466;5.478;2022-07-31T12:01:14;5.22;;;2.80;;
68365;SDS011;55283;51.466;5.478;2022-07-31T12:03:40;4.07;;;2.83;;
68365;SDS011;55283;51.466;5.478;2022-07-31T12:06:06;5.63;;;3.17;;
68365;SDS011;55283;51.466;5.478;2022-07-31T12:08:33;3.80;;;2.72;;
68365;SDS011;55283;51.466;5.478;2022-07-31T12:10:59;5.27;;;2.60;;
68365;SDS011;55283;51.466;5.478;2022-07-31T12:13:26;4.80;;;2.85;;
68365;SDS011;55283;51.466;5.478;2022-07-31T12:16:05;4.60;;;3.10;;
68365;SDS011;55283;51.466;5.478;2022-07-31T12:18:54;5.57;;;2.87;;
68365;SDS011;55283;51.466;5.478;2022-07-31T12:21:27;4.05;;;3.25;;
68365;SDS011;55283;51.466;5.478;2022-07-31T12:23:57;5.38;;;2.92;;
68365;SDS011;55283;51.466;5.478;2022-07-31T12:26:27;6.03;;;3.17;;
68365;SDS011;55283;51.466;5.478;2022-07-31T12:29:04;3.83;;;3.10;;
68365;SDS011;55283;51.466;5.478;2022-07-31T12:34:30;5.03;;;3.13;;
68365;SDS011;55283;51.466;5.478;2022-07-31T12:37:07;5.67;;;3.33;;
68365;SDS011;55283;51.466;5.478;2022-07-31T12:42:27;4.28;;;3.03;;
68365;SDS011;55283;51.466;5.478;2022-07-31T12:45:02;4.57;;;3.20;;
68365;SDS011;55283;51.466;5.478;2022-07-31T12:47:32;5.68;;;3.70;;
68365;SDS011;55283;51.466;5.478;2022-07-31T12:50:04;5.55;;;3.40;;
68365;SDS011;55283;51.466;5.478;2022-07-31T12:52:30;4.03;;;3.27;;
68365;SDS011;55283;51.466;5.478;2022-07-31T12:54:58;4.95;;;3.20;;
68365;SDS011;55283;51.466;5.478;2022-07-31T12:57:26;4.90;;;3.30;;
68365;SDS011;55283;51.466;5.478;2022-07-31T12:59:52;5.65;;;3.30;;
68365;SDS011;55283;51.466;5.478;2022-07-31T13:02:18;5.97;;;3.70;;
68365;SDS011;55283;51.466;5.478;2022-07-31T13:04:45;7.37;;;3.70;;
68365;SDS011;55283;51.466;5.478;2022-07-31T13:07:11;5.88;;;3.40;;
68365;SDS011;55283;51.466;5.478;2022-07-31T13:09:36;6.10;;;3.23;;
68365;SDS011;55283;51.466;5.478;2022-07-31T13:12:02;6.90;;;3.27;;
68365;SDS011;55283;51.466;5.478;2022-07-31T13:14:27;4.95;;;3.30;;
68365;SDS011;55283;51.466;5.478;2022-07-31T13:16:53;8.13;;;3.50;;
68365;SDS011;55283;51.466;5.478;2022-07-31T13:19:19;6.03;;;3.33;;
68365;SDS011;55283;51.466;5.478;2022-07-31T13:21:44;4.70;;;3.40;;
68365;SDS011;55283;51.466;5.478;2022-07-31T13:24:10;5.00;;;3.38;;
68365;SDS011;55283;51.466;5.478;2022-07-31T13:26:37;4.97;;;3.20;;
68365;SDS011;55283;51.466;5.478;2022-07-31T13:29:04;4.85;;;3.30;;
68365;SDS011;55283;51.466;5.478;2022-07-31T13:31:30;6.28;;;3.30;;
68365;SDS011;55283;51.466;5.478;2022-07-31T13:33:58;4.20;;;3.43;;
68365;SDS011;55283;51.466;5.478;2022-07-31T13:36:24;5.32;;;3.15;;
68365;SDS011;55283;51.466;5.478;2022-07-31T13:38:50;4.67;;;3.27;;
68365;SDS011;55283;51.466;5.478;2022-07-31T13:41:16;3.72;;;3.00;;
68365;SDS011;55283;51.466;5.478;2022-07-31T13:43:56;6.50;;;3.00;;
68365;SDS011;55283;51.466;5.478;2022-07-31T13:46:23;4.87;;;2.90;;
68365;SDS011;55283;51.466;5.478;2022-07-31T13:48:50;5.22;;;2.90;;
68365;SDS011;55283;51.466;5.478;2022-07-31T13:51:17;3.28;;;2.35;;
68365;SDS011;55283;51.466;5.478;2022-07-31T13:53:42;6.30;;;2.80;;
68365;SDS011;55283;51.466;5.478;2022-07-31T13:56:11;4.47;;;2.58;;
68365;SDS011;55283;51.466;5.478;2022-07-31T13:58:39;6.47;;;2.87;;
68365;SDS011;55283;51.466;5.478;2022-07-31T14:01:04;5.53;;;2.60;;
68365;SDS011;55283;51.466;5.478;2022-07-31T14:03:30;5.32;;;2.53;;
68365;SDS011;55283;51.466;5.478;2022-07-31T14:05:55;3.03;;;2.10;;
68365;SDS011;55283;51.466;5.478;2022-07-31T14:08:21;5.32;;;2.30;;
68365;SDS011;55283;51.466;5.478;2022-07-31T14:10:49;3.47;;;2.20;;
68365;SDS011;55283;51.466;5.478;2022-07-31T14:13:15;3.45;;;2.22;;
68365;SDS011;55283;51.466;5.478;2022-07-31T14:15:41;3.43;;;2.30;;
68365;SDS011;55283;51.466;5.478;2022-07-31T14:18:07;4.22;;;2.30;;
68365;SDS011;55283;51.466;5.478;2022-07-31T14:20:32;4.60;;;2.20;;
68365;SDS011;55283;51.466;5.478;2022-07-31T14:22:59;3.92;;;2.20;;
68365;SDS011;55283;51.466;5.478;2022-07-31T14:25:26;3.47;;;2.23;;
68365;SDS011;55283;51.466;5.478;2022-07-31T14:27:52;3.13;;;2.20;;
68365;SDS011;55283;51.466;5.478;2022-07-31T14:30:18;4.53;;;2.13;;
68365;SDS011;55283;51.466;5.478;2022-07-31T14:32:44;4.22;;;2.10;;
68365;SDS011;55283;51.466;5.478;2022-07-31T14:35:09;3.87;;;2.10;;
68365;SDS011;55283;51.466;5.478;2022-07-31T14:37:35;3.45;;;2.00;;
68365;SDS011;55283;51.466;5.478;2022-07-31T14:40:02;2.93;;;2.20;;
68365;SDS011;55283;51.466;5.478;2022-07-31T14:42:28;9.15;;;3.20;;
68365;SDS011;55283;51.466;5.478;2022-07-31T14:44:53;11.40;;;4.53;;
68365;SDS011;55283;51.466;5.478;2022-07-31T14:47:19;11.03;;;4.07;;
68365;SDS011;55283;51.466;5.478;2022-07-31T14:49:44;11.77;;;3.85;;
68365;SDS011;55283;51.466;5.478;2022-07-31T14:52:10;6.47;;;3.07;;
68365;SDS011;55283;51.466;5.478;2022-07-31T14:54:35;8.07;;;3.20;;
68365;SDS011;55283;51.466;5.478;2022-07-31T14:57:01;4.63;;;2.37;;
68365;SDS011;55283;51.466;5.478;2022-07-31T14:59:27;6.93;;;2.75;;
68365;SDS011;55283;51.466;5.478;2022-07-31T15:01:53;3.67;;;2.10;;
68365;SDS011;55283;51.466;5.478;2022-07-31T15:04:19;5.15;;;2.50;;
68365;SDS011;55283;51.466;5.478;2022-07-31T15:06:49;5.20;;;2.00;;
68365;SDS011;55283;51.466;5.478;2022-07-31T15:09:15;6.38;;;2.35;;